sensor_id;sensor_type;location;lat;lon;timestamp;pressure;altitude;pressure_sealevel;temperature;humidity
34235;BME280;20500;49.856;20.290;2023-11-22T00:01:41;99050.08;;;0.55;90.21
34235;BME280;20500;49.856;20.290;2023-11-22T00:04:47;99055.77;;;0.56;90.25
34235;BME280;20500;49.856;20.290;2023-11-22T00:07:52;99060.45;;;0.57;90.29
34235;BME280;20500;49.856;20.290;2023-11-22T00:10:59;99060.70;;;0.52;90.01
34235;BME280;20500;49.856;20.290;2023-11-22T00:14:05;99063.17;;;0.47;90.12
34235;BME280;20500;49.856;20.290;2023-11-22T00:17:11;99066.61;;;0.46;90.27
34235;BME280;20500;49.856;20.290;2023-11-22T00:20:18;99071.14;;;0.51;90.51
34235;BME280;20500;49.856;20.290;2023-11-22T00:23:25;99077.43;;;0.57;90.53
34235;BME280;20500;49.856;20.290;2023-11-22T00:26:34;99082.97;;;0.55;90.30
34235;BME280;20500;49.856;20.290;2023-11-22T00:29:40;99087.20;;;0.56;90.52
34235;BME280;20500;49.856;20.290;2023-11-22T00:32:46;99096.23;;;0.61;90.68
34235;BME280;20500;49.856;20.290;2023-11-22T00:35:51;99102.92;;;0.64;90.61
34235;BME280;20500;49.856;20.290;2023-11-22T00:38:56;99104.80;;;0.63;90.56
34235;BME280;20500;49.856;20.290;2023-11-22T00:42:02;99101.71;;;0.60;90.39
34235;BME280;20500;49.856;20.290;2023-11-22T00:45:10;99102.23;;;0.58;90.39
34235;BME280;20500;49.856;20.290;2023-11-22T00:48:16;99100.09;;;0.53;90.44
34235;BME280;20500;49.856;20.290;2023-11-22T00:51:21;99108.46;;;0.50;90.42
34235;BME280;20500;49.856;20.290;2023-11-22T00:54:27;99113.96;;;0.44;90.23
34235;BME280;20500;49.856;20.290;2023-11-22T00:57:33;99119.51;;;0.37;90.21
34235;BME280;20500;49.856;20.290;2023-11-22T01:00:38;99123.16;;;0.31;90.20
34235;BME280;20500;49.856;20.290;2023-11-22T01:03:44;99126.34;;;0.24;90.02
34235;BME280;20500;49.856;20.290;2023-11-22T01:06:51;99127.96;;;0.22;90.27
34235;BME280;20500;49.856;20.290;2023-11-22T01:09:57;99127.77;;;0.17;90.18
34235;BME280;20500;49.856;20.290;2023-11-22T01:13:02;99128.81;;;0.13;90.07
34235;BME280;20500;49.856;20.290;2023-11-22T01:16:09;99132.08;;;0.08;90.01
34235;BME280;20500;49.856;20.290;2023-11-22T01:19:13;99132.72;;;0.01;90.03
34235;BME280;20500;49.856;20.290;2023-11-22T01:22:19;99133.68;;;-0.02;90.10
34235;BME280;20500;49.856;20.290;2023-11-22T01:25:25;99137.23;;;-0.04;90.07
34235;BME280;20500;49.856;20.290;2023-11-22T01:28:32;99142.11;;;-0.06;90.18
34235;BME280;20500;49.856;20.290;2023-11-22T01:31:38;99145.67;;;-0.00;90.43
34235;BME280;20500;49.856;20.290;2023-11-22T01:34:46;99148.27;;;0.04;90.31
34235;BME280;20500;49.856;20.290;2023-11-22T01:37:52;99150.84;;;0.02;90.17
34235;BME280;20500;49.856;20.290;2023-11-22T01:40:58;99155.10;;;0.00;90.27
34235;BME280;20500;49.856;20.290;2023-11-22T01:44:05;99156.00;;;0.03;90.26
34235;BME280;20500;49.856;20.290;2023-11-22T01:47:11;99156.59;;;0.02;90.20
34235;BME280;20500;49.856;20.290;2023-11-22T01:50:18;99157.95;;;0.03;90.25
34235;BME280;20500;49.856;20.290;2023-11-22T01:53:25;99162.91;;;0.03;90.23
34235;BME280;20500;49.856;20.290;2023-11-22T01:56:32;99163.14;;;0.03;90.23
34235;BME280;20500;49.856;20.290;2023-11-22T01:59:39;99165.90;;;-0.01;90.12
34235;BME280;20500;49.856;20.290;2023-11-22T02:02:45;99168.55;;;-0.03;90.30
34235;BME280;20500;49.856;20.290;2023-11-22T02:05:51;99172.55;;;-0.02;90.40
34235;BME280;20500;49.856;20.290;2023-11-22T02:08:58;99175.53;;;-0.04;90.21
34235;BME280;20500;49.856;20.290;2023-11-22T02:12:07;99177.11;;;-0.08;90.11
34235;BME280;20500;49.856;20.290;2023-11-22T02:15:13;99181.35;;;-0.12;90.10
34235;BME280;20500;49.856;20.290;2023-11-22T02:18:18;99185.21;;;-0.14;90.22
34235;BME280;20500;49.856;20.290;2023-11-22T02:21:24;99186.98;;;-0.18;90.05
34235;BME280;20500;49.856;20.290;2023-11-22T02:24:30;99191.44;;;-0.23;90.02
34235;BME280;20500;49.856;20.290;2023-11-22T02:27:37;99195.20;;;-0.29;89.94
34235;BME280;20500;49.856;20.290;2023-11-22T02:30:42;99194.62;;;-0.33;89.92
34235;BME280;20500;49.856;20.290;2023-11-22T02:33:47;99200.85;;;-0.36;90.04
34235;BME280;20500;49.856;20.290;2023-11-22T02:36:53;99205.25;;;-0.34;90.23
34235;BME280;20500;49.856;20.290;2023-11-22T02:40:14;99202.00;;;-0.29;90.42
34235;BME280;20500;49.856;20.290;2023-11-22T02:43:22;99203.83;;;-0.25;90.43
34235;BME280;20500;49.856;20.290;2023-11-22T02:46:27;99206.33;;;-0.22;90.39
34235;BME280;20500;49.856;20.290;2023-11-22T02:49:33;99208.75;;;-0.24;90.25
34235;BME280;20500;49.856;20.290;2023-11-22T02:52:39;99208.31;;;-0.27;90.14
34235;BME280;20500;49.856;20.290;2023-11-22T02:55:45;99212.17;;;-0.32;90.04
34235;BME280;20500;49.856;20.290;2023-11-22T02:58:51;99215.03;;;-0.36;89.93
34235;BME280;20500;49.856;20.290;2023-11-22T03:01:57;99218.77;;;-0.41;90.00
34235;BME280;20500;49.856;20.290;2023-11-22T03:05:03;99229.09;;;-0.44;90.05
34235;BME280;20500;49.856;20.290;2023-11-22T03:08:10;99237.57;;;-0.45;89.99
34235;BME280;20500;49.856;20.290;2023-11-22T03:11:17;99247.55;;;-0.47;90.00
34235;BME280;20500;49.856;20.290;2023-11-22T03:14:24;99254.86;;;-0.51;90.04
34235;BME280;20500;49.856;20.290;2023-11-22T03:17:30;99262.05;;;-0.48;90.22
34235;BME280;20500;49.856;20.290;2023-11-22T03:20:37;99266.94;;;-0.47;90.17
34235;BME280;20500;49.856;20.290;2023-11-22T03:23:43;99269.73;;;-0.48;90.07
34235;BME280;20500;49.856;20.290;2023-11-22T03:26:49;99270.73;;;-0.53;90.06
34235;BME280;20500;49.856;20.290;2023-11-22T03:29:54;99276.83;;;-0.56;90.04
34235;BME280;20500;49.856;20.290;2023-11-22T03:33:00;99285.21;;;-0.59;89.98
34235;BME280;20500;49.856;20.290;2023-11-22T03:36:07;99287.10;;;-0.60;90.00
34235;BME280;20500;49.856;20.290;2023-11-22T03:39:15;99287.63;;;-0.60;89.92
34235;BME280;20500;49.856;20.290;2023-11-22T03:42:21;99291.36;;;-0.63;89.90
34235;BME280;20500;49.856;20.290;2023-11-22T03:45:27;99298.08;;;-0.64;89.88
34235;BME280;20500;49.856;20.290;2023-11-22T03:48:32;99306.16;;;-0.65;90.04
34235;BME280;20500;49.856;20.290;2023-11-22T03:51:42;99312.44;;;-0.63;90.06
34235;BME280;20500;49.856;20.290;2023-11-22T03:54:48;99315.83;;;-0.63;90.07
34235;BME280;20500;49.856;20.290;2023-11-22T03:57:57;99326.55;;;-0.61;90.25
34235;BME280;20500;49.856;20.290;2023-11-22T04:01:02;99337.19;;;-0.60;90.11
34235;BME280;20500;49.856;20.290;2023-11-22T04:04:08;99341.71;;;-0.61;90.11
34235;BME280;20500;49.856;20.290;2023-11-22T04:07:14;99345.27;;;-0.61;90.12
34235;BME280;20500;49.856;20.290;2023-11-22T04:10:20;99347.59;;;-0.61;90.10
34235;BME280;20500;49.856;20.290;2023-11-22T04:13:25;99345.63;;;-0.61;90.06
34235;BME280;20500;49.856;20.290;2023-11-22T04:16:33;99347.73;;;-0.63;90.01
34235;BME280;20500;49.856;20.290;2023-11-22T04:19:38;99355.91;;;-0.65;90.06
34235;BME280;20500;49.856;20.290;2023-11-22T04:22:44;99366.80;;;-0.65;90.08
34235;BME280;20500;49.856;20.290;2023-11-22T04:25:50;99373.69;;;-0.67;90.03
34235;BME280;20500;49.856;20.290;2023-11-22T04:28:56;99380.35;;;-0.68;90.15
34235;BME280;20500;49.856;20.290;2023-11-22T04:32:03;99386.14;;;-0.67;90.10
34235;BME280;20500;49.856;20.290;2023-11-22T04:35:10;99392.25;;;-0.68;90.03
34235;BME280;20500;49.856;20.290;2023-11-22T04:38:16;99399.14;;;-0.70;90.01
34235;BME280;20500;49.856;20.290;2023-11-22T04:41:22;99401.98;;;-0.69;89.98
34235;BME280;20500;49.856;20.290;2023-11-22T04:44:29;99397.23;;;-0.68;90.12
34235;BME280;20500;49.856;20.290;2023-11-22T04:47:36;99402.66;;;-0.63;90.11
34235;BME280;20500;49.856;20.290;2023-11-22T04:50:42;99405.39;;;-0.64;90.03
34235;BME280;20500;49.856;20.290;2023-11-22T04:53:48;99409.58;;;-0.63;90.12
34235;BME280;20500;49.856;20.290;2023-11-22T04:56:54;99412.97;;;-0.61;90.12
34235;BME280;20500;49.856;20.290;2023-11-22T05:00:00;99421.80;;;-0.59;90.02
34235;BME280;20500;49.856;20.290;2023-11-22T05:03:07;99430.14;;;-0.61;89.98
34235;BME280;20500;49.856;20.290;2023-11-22T05:06:13;99438.10;;;-0.63;89.90
34235;BME280;20500;49.856;20.290;2023-11-22T05:09:19;99445.50;;;-0.67;89.84
34235;BME280;20500;49.856;20.290;2023-11-22T05:12:25;99453.73;;;-0.70;89.80
34235;BME280;20500;49.856;20.290;2023-11-22T05:15:31;99457.08;;;-0.72;89.79
34235;BME280;20500;49.856;20.290;2023-11-22T05:18:36;99467.91;;;-0.75;89.74
34235;BME280;20500;49.856;20.290;2023-11-22T05:21:42;99480.42;;;-0.78;89.67
34235;BME280;20500;49.856;20.290;2023-11-22T05:25:07;99490.52;;;-0.82;89.64
34235;BME280;20500;49.856;20.290;2023-11-22T05:28:13;99493.21;;;-0.86;89.72
34235;BME280;20500;49.856;20.290;2023-11-22T05:31:19;99497.40;;;-0.87;89.72
34235;BME280;20500;49.856;20.290;2023-11-22T05:34:25;99502.42;;;-0.88;89.67
34235;BME280;20500;49.856;20.290;2023-11-22T05:37:31;99505.98;;;-0.87;89.70
34235;BME280;20500;49.856;20.290;2023-11-22T05:40:37;99505.70;;;-0.89;89.65
34235;BME280;20500;49.856;20.290;2023-11-22T05:43:41;99506.52;;;-0.87;89.74
34235;BME280;20500;49.856;20.290;2023-11-22T05:46:47;99513.55;;;-0.89;89.54
34235;BME280;20500;49.856;20.290;2023-11-22T05:49:53;99519.23;;;-0.91;89.58
34235;BME280;20500;49.856;20.290;2023-11-22T05:52:59;99522.13;;;-0.89;89.66
34235;BME280;20500;49.856;20.290;2023-11-22T05:56:05;99529.78;;;-0.89;89.61
34235;BME280;20500;49.856;20.290;2023-11-22T05:59:13;99532.96;;;-0.91;89.51
34235;BME280;20500;49.856;20.290;2023-11-22T06:02:19;99538.16;;;-0.94;89.46
34235;BME280;20500;49.856;20.290;2023-11-22T06:05:24;99536.90;;;-0.97;89.48
34235;BME280;20500;49.856;20.290;2023-11-22T06:08:30;99544.04;;;-0.97;89.55
34235;BME280;20500;49.856;20.290;2023-11-22T06:11:36;99548.23;;;-0.99;89.55
34235;BME280;20500;49.856;20.290;2023-11-22T06:14:42;99547.66;;;-1.04;89.45
34235;BME280;20500;49.856;20.290;2023-11-22T06:17:47;99544.77;;;-1.03;89.61
34235;BME280;20500;49.856;20.290;2023-11-22T06:20:54;99550.06;;;-1.03;89.61
34235;BME280;20500;49.856;20.290;2023-11-22T06:23:59;99558.84;;;-1.04;89.65
34235;BME280;20500;49.856;20.290;2023-11-22T06:27:07;99571.23;;;-1.05;89.65
34235;BME280;20500;49.856;20.290;2023-11-22T06:30:14;99577.58;;;-1.04;89.73
34235;BME280;20500;49.856;20.290;2023-11-22T06:33:20;99579.02;;;-1.04;89.71
34235;BME280;20500;49.856;20.290;2023-11-22T06:36:25;99581.38;;;-1.05;89.76
34235;BME280;20500;49.856;20.290;2023-11-22T06:39:32;99580.29;;;-1.04;89.85
34235;BME280;20500;49.856;20.290;2023-11-22T06:42:37;99579.83;;;-1.03;89.92
34235;BME280;20500;49.856;20.290;2023-11-22T06:45:43;99582.05;;;-1.01;89.91
34235;BME280;20500;49.856;20.290;2023-11-22T06:48:49;99589.20;;;-1.02;89.94
34235;BME280;20500;49.856;20.290;2023-11-22T06:51:55;99590.72;;;-1.01;89.88
34235;BME280;20500;49.856;20.290;2023-11-22T06:55:02;99597.94;;;-1.02;89.76
34235;BME280;20500;49.856;20.290;2023-11-22T06:58:08;99605.61;;;-1.05;89.75
34235;BME280;20500;49.856;20.290;2023-11-22T07:01:15;99608.29;;;-1.08;89.91
34235;BME280;20500;49.856;20.290;2023-11-22T07:04:21;99611.08;;;-1.07;89.90
34235;BME280;20500;49.856;20.290;2023-11-22T07:07:26;99617.17;;;-1.05;89.93
34235;BME280;20500;49.856;20.290;2023-11-22T07:10:31;99620.67;;;-1.04;90.04
34235;BME280;20500;49.856;20.290;2023-11-22T07:13:38;99627.80;;;-1.04;89.90
34235;BME280;20500;49.856;20.290;2023-11-22T07:16:44;99638.66;;;-1.06;89.80
34235;BME280;20500;49.856;20.290;2023-11-22T07:19:50;99645.11;;;-1.10;89.72
34235;BME280;20500;49.856;20.290;2023-11-22T07:22:56;99644.29;;;-1.13;89.69
34235;BME280;20500;49.856;20.290;2023-11-22T07:26:03;99646.44;;;-1.17;89.74
34235;BME280;20500;49.856;20.290;2023-11-22T07:29:10;99646.63;;;-1.20;89.78
34235;BME280;20500;49.856;20.290;2023-11-22T07:32:17;99647.17;;;-1.20;89.84
34235;BME280;20500;49.856;20.290;2023-11-22T07:35:25;99649.37;;;-1.21;89.84
34235;BME280;20500;49.856;20.290;2023-11-22T07:38:32;99649.96;;;-1.22;89.81
34235;BME280;20500;49.856;20.290;2023-11-22T07:41:40;99648.34;;;-1.21;89.90
34235;BME280;20500;49.856;20.290;2023-11-22T07:44:44;99645.41;;;-1.20;89.90
34235;BME280;20500;49.856;20.290;2023-11-22T07:47:50;99646.61;;;-1.20;89.87
34235;BME280;20500;49.856;20.290;2023-11-22T07:50:57;99653.60;;;-1.20;89.88
34235;BME280;20500;49.856;20.290;2023-11-22T07:54:04;99663.08;;;-1.21;89.87
34235;BME280;20500;49.856;20.290;2023-11-22T07:57:08;99671.40;;;-1.23;89.69
34235;BME280;20500;49.856;20.290;2023-11-22T08:00:15;99676.26;;;-1.27;89.73
34235;BME280;20500;49.856;20.290;2023-11-22T08:03:24;99676.79;;;-1.30;89.78
34235;BME280;20500;49.856;20.290;2023-11-22T08:06:28;99676.11;;;-1.31;89.91
34235;BME280;20500;49.856;20.290;2023-11-22T08:09:34;99681.16;;;-1.31;89.91
34235;BME280;20500;49.856;20.290;2023-11-22T08:12:40;99680.38;;;-1.36;89.73
34235;BME280;20500;49.856;20.290;2023-11-22T08:15:45;99681.56;;;-1.38;89.74
34235;BME280;20500;49.856;20.290;2023-11-22T08:18:51;99684.50;;;-1.39;89.77
34235;BME280;20500;49.856;20.290;2023-11-22T08:21:57;99688.42;;;-1.40;89.74
34235;BME280;20500;49.856;20.290;2023-11-22T08:25:03;99695.13;;;-1.39;89.91
34235;BME280;20500;49.856;20.290;2023-11-22T08:28:09;99699.06;;;-1.39;89.82
34235;BME280;20500;49.856;20.290;2023-11-22T08:31:15;99714.20;;;-1.42;89.72
34235;BME280;20500;49.856;20.290;2023-11-22T08:34:22;99722.70;;;-1.44;89.74
34235;BME280;20500;49.856;20.290;2023-11-22T08:37:27;99731.19;;;-1.43;89.83
34235;BME280;20500;49.856;20.290;2023-11-22T08:40:33;99744.90;;;-1.40;89.87
34235;BME280;20500;49.856;20.290;2023-11-22T08:43:41;99746.40;;;-1.39;89.91
34235;BME280;20500;49.856;20.290;2023-11-22T08:46:47;99743.49;;;-1.41;89.76
34235;BME280;20500;49.856;20.290;2023-11-22T08:49:53;99742.77;;;-1.44;89.77
34235;BME280;20500;49.856;20.290;2023-11-22T08:52:59;99741.02;;;-1.48;89.66
34235;BME280;20500;49.856;20.290;2023-11-22T08:56:06;99736.27;;;-1.49;89.85
34235;BME280;20500;49.856;20.290;2023-11-22T08:59:14;99733.58;;;-1.44;89.91
34235;BME280;20500;49.856;20.290;2023-11-22T09:02:21;99739.85;;;-1.42;89.94
34235;BME280;20500;49.856;20.290;2023-11-22T09:05:28;99746.10;;;-1.39;89.92
34235;BME280;20500;49.856;20.290;2023-11-22T09:08:32;99746.67;;;-1.37;90.03
34235;BME280;20500;49.856;20.290;2023-11-22T09:11:40;99746.85;;;-1.34;90.05
34235;BME280;20500;49.856;20.290;2023-11-22T09:14:46;99744.55;;;-1.32;89.95
34235;BME280;20500;49.856;20.290;2023-11-22T09:17:52;99745.91;;;-1.33;89.72
34235;BME280;20500;49.856;20.290;2023-11-22T09:20:58;99744.85;;;-1.37;89.78
34235;BME280;20500;49.856;20.290;2023-11-22T09:24:04;99741.98;;;-1.37;89.88
34235;BME280;20500;49.856;20.290;2023-11-22T09:27:11;99743.56;;;-1.36;89.79
34235;BME280;20500;49.856;20.290;2023-11-22T09:30:22;99749.94;;;-1.38;89.75
34235;BME280;20500;49.856;20.290;2023-11-22T09:33:39;99757.88;;;-1.37;89.93
34235;BME280;20500;49.856;20.290;2023-11-22T09:36:45;99756.66;;;-1.35;89.85
34235;BME280;20500;49.856;20.290;2023-11-22T09:39:51;99755.27;;;-1.35;89.85
34235;BME280;20500;49.856;20.290;2023-11-22T09:42:57;99760.86;;;-1.36;89.81
34235;BME280;20500;49.856;20.290;2023-11-22T09:46:04;99765.44;;;-1.38;89.74
34235;BME280;20500;49.856;20.290;2023-11-22T09:49:19;99761.04;;;-1.39;89.76
34235;BME280;20500;49.856;20.290;2023-11-22T09:52:29;99758.20;;;-1.36;89.78
34235;BME280;20500;49.856;20.290;2023-11-22T09:55:35;99758.73;;;-1.36;89.77
34235;BME280;20500;49.856;20.290;2023-11-22T09:58:42;99766.50;;;-1.35;89.74
34235;BME280;20500;49.856;20.290;2023-11-22T10:01:49;99758.23;;;-1.34;89.83
34235;BME280;20500;49.856;20.290;2023-11-22T10:04:57;99763.31;;;-1.27;89.91
34235;BME280;20500;49.856;20.290;2023-11-22T10:08:03;99763.91;;;-1.25;89.77
34235;BME280;20500;49.856;20.290;2023-11-22T10:11:07;99771.78;;;-1.25;89.75
34235;BME280;20500;49.856;20.290;2023-11-22T10:14:23;99782.94;;;-1.24;89.84
34235;BME280;20500;49.856;20.290;2023-11-22T10:17:30;99785.49;;;-1.25;89.75
34235;BME280;20500;49.856;20.290;2023-11-22T10:20:40;99787.63;;;-1.28;89.70
34235;BME280;20500;49.856;20.290;2023-11-22T10:23:47;99787.41;;;-1.30;89.68
34235;BME280;20500;49.856;20.290;2023-11-22T10:26:54;99791.20;;;-1.34;89.61
34235;BME280;20500;49.856;20.290;2023-11-22T10:30:03;99799.22;;;-1.38;89.59
34235;BME280;20500;49.856;20.290;2023-11-22T10:33:10;99800.72;;;-1.42;89.44
34235;BME280;20500;49.856;20.290;2023-11-22T10:36:19;99804.84;;;-1.46;89.46
34235;BME280;20500;49.856;20.290;2023-11-22T10:39:25;99811.58;;;-1.49;89.49
34235;BME280;20500;49.856;20.290;2023-11-22T10:42:32;99824.08;;;-1.49;89.57
34235;BME280;20500;49.856;20.290;2023-11-22T10:45:39;99839.58;;;-1.53;89.55
34235;BME280;20500;49.856;20.290;2023-11-22T10:48:50;99844.56;;;-1.53;89.59
34235;BME280;20500;49.856;20.290;2023-11-22T10:51:55;99845.45;;;-1.53;89.58
34235;BME280;20500;49.856;20.290;2023-11-22T10:55:03;99845.77;;;-1.52;89.60
34235;BME280;20500;49.856;20.290;2023-11-22T10:58:11;99848.84;;;-1.53;89.63
34235;BME280;20500;49.856;20.290;2023-11-22T11:01:20;99853.41;;;-1.52;89.62
34235;BME280;20500;49.856;20.290;2023-11-22T11:04:33;99846.55;;;-1.50;89.66
34235;BME280;20500;49.856;20.290;2023-11-22T11:07:41;99845.09;;;-1.46;89.69
34235;BME280;20500;49.856;20.290;2023-11-22T11:10:52;99836.27;;;-1.44;89.70
34235;BME280;20500;49.856;20.290;2023-11-22T11:14:01;99833.77;;;-1.44;89.56
34235;BME280;20500;49.856;20.290;2023-11-22T11:17:08;99831.67;;;-1.45;89.45
34235;BME280;20500;49.856;20.290;2023-11-22T11:20:16;99830.62;;;-1.42;89.61
34235;BME280;20500;49.856;20.290;2023-11-22T11:23:26;99824.46;;;-1.40;89.60
34235;BME280;20500;49.856;20.290;2023-11-22T11:26:34;99822.33;;;-1.37;89.62
34235;BME280;20500;49.856;20.290;2023-11-22T11:29:40;99816.83;;;-1.37;89.53
34235;BME280;20500;49.856;20.290;2023-11-22T11:32:49;99814.13;;;-1.40;89.43
34235;BME280;20500;49.856;20.290;2023-11-22T11:35:58;99807.35;;;-1.40;89.57
34235;BME280;20500;49.856;20.290;2023-11-22T11:39:07;99802.38;;;-1.40;89.54
34235;BME280;20500;49.856;20.290;2023-11-22T11:42:18;99809.22;;;-1.35;89.65
34235;BME280;20500;49.856;20.290;2023-11-22T11:45:28;99819.14;;;-1.28;89.75
34235;BME280;20500;49.856;20.290;2023-11-22T11:48:35;99824.11;;;-1.25;89.55
34235;BME280;20500;49.856;20.290;2023-11-22T11:51:41;99835.39;;;-1.23;89.64
34235;BME280;20500;49.856;20.290;2023-11-22T11:54:47;99835.74;;;-1.20;89.57
34235;BME280;20500;49.856;20.290;2023-11-22T11:57:53;99831.10;;;-1.14;89.74
34235;BME280;20500;49.856;20.290;2023-11-22T12:01:00;99839.33;;;-1.08;89.65
34235;BME280;20500;49.856;20.290;2023-11-22T12:04:07;99842.98;;;-1.07;89.50
34235;BME280;20500;49.856;20.290;2023-11-22T12:07:12;99843.67;;;-1.09;89.40
34235;BME280;20500;49.856;20.290;2023-11-22T12:10:17;99849.88;;;-1.09;89.48
34235;BME280;20500;49.856;20.290;2023-11-22T12:13:23;99855.69;;;-1.11;89.44
34235;BME280;20500;49.856;20.290;2023-11-22T12:16:29;99863.42;;;-1.12;89.36
34235;BME280;20500;49.856;20.290;2023-11-22T12:19:35;99856.34;;;-1.15;89.23
34235;BME280;20500;49.856;20.290;2023-11-22T12:22:41;99865.23;;;-1.18;89.14
34235;BME280;20500;49.856;20.290;2023-11-22T12:25:45;99869.18;;;-1.19;89.16
34235;BME280;20500;49.856;20.290;2023-11-22T12:28:51;99871.28;;;-1.15;89.35
34235;BME280;20500;49.856;20.290;2023-11-22T12:32:09;99870.02;;;-1.09;89.43
34235;BME280;20500;49.856;20.290;2023-11-22T12:35:16;99867.95;;;-1.04;89.30
34235;BME280;20500;49.856;20.290;2023-11-22T12:38:25;99861.50;;;-1.00;89.24
34235;BME280;20500;49.856;20.290;2023-11-22T12:41:34;99859.45;;;-1.02;88.98
34235;BME280;20500;49.856;20.290;2023-11-22T12:44:50;99855.60;;;-1.06;88.91
34235;BME280;20500;49.856;20.290;2023-11-22T12:47:57;99854.88;;;-1.09;88.85
34235;BME280;20500;49.856;20.290;2023-11-22T12:51:16;99848.40;;;-1.14;88.92
34235;BME280;20500;49.856;20.290;2023-11-22T12:54:22;99844.59;;;-1.13;88.99
34235;BME280;20500;49.856;20.290;2023-11-22T12:57:28;99847.58;;;-1.15;88.98
34235;BME280;20500;49.856;20.290;2023-11-22T13:00:34;99847.25;;;-1.16;88.87
34235;BME280;20500;49.856;20.290;2023-11-22T13:03:40;99852.85;;;-1.20;88.84
34235;BME280;20500;49.856;20.290;2023-11-22T13:06:46;99852.77;;;-1.18;88.93
34235;BME280;20500;49.856;20.290;2023-11-22T13:09:52;99841.80;;;-1.16;88.97
34235;BME280;20500;49.856;20.290;2023-11-22T13:12:57;99848.10;;;-1.15;89.05
34235;BME280;20500;49.856;20.290;2023-11-22T13:16:06;99857.82;;;-1.10;89.12
34235;BME280;20500;49.856;20.290;2023-11-22T13:19:12;99852.27;;;-1.10;88.91
34235;BME280;20500;49.856;20.290;2023-11-22T13:22:18;99847.79;;;-1.13;88.75
34235;BME280;20500;49.856;20.290;2023-11-22T13:25:24;99855.42;;;-1.09;88.87
34235;BME280;20500;49.856;20.290;2023-11-22T13:28:29;99863.45;;;-1.03;88.90
34235;BME280;20500;49.856;20.290;2023-11-22T13:31:35;99867.98;;;-1.02;89.00
34235;BME280;20500;49.856;20.290;2023-11-22T13:34:41;99875.08;;;-1.01;88.88
34235;BME280;20500;49.856;20.290;2023-11-22T13:37:47;99873.91;;;-1.00;88.85
34235;BME280;20500;49.856;20.290;2023-11-22T13:40:53;99881.38;;;-1.00;88.80
34235;BME280;20500;49.856;20.290;2023-11-22T13:43:59;99892.95;;;-0.99;88.85
34235;BME280;20500;49.856;20.290;2023-11-22T13:47:05;99898.30;;;-0.99;88.76
34235;BME280;20500;49.856;20.290;2023-11-22T13:50:12;99899.85;;;-1.01;88.61
34235;BME280;20500;49.856;20.290;2023-11-22T13:53:20;99899.13;;;-1.07;88.58
34235;BME280;20500;49.856;20.290;2023-11-22T13:56:27;99895.64;;;-1.08;88.62
34235;BME280;20500;49.856;20.290;2023-11-22T13:59:32;99894.32;;;-1.10;88.53
34235;BME280;20500;49.856;20.290;2023-11-22T14:02:39;99884.91;;;-1.11;88.60
34235;BME280;20500;49.856;20.290;2023-11-22T14:05:46;99885.45;;;-1.11;88.53
34235;BME280;20500;49.856;20.290;2023-11-22T14:08:51;99885.23;;;-1.13;88.51
34235;BME280;20500;49.856;20.290;2023-11-22T14:11:57;99886.70;;;-1.14;88.58
34235;BME280;20500;49.856;20.290;2023-11-22T14:15:04;99889.31;;;-1.13;88.64
34235;BME280;20500;49.856;20.290;2023-11-22T14:18:10;99890.75;;;-1.07;88.70
34235;BME280;20500;49.856;20.290;2023-11-22T14:21:16;99896.27;;;-1.07;88.62
34235;BME280;20500;49.856;20.290;2023-11-22T14:24:21;99895.50;;;-1.06;88.60
34235;BME280;20500;49.856;20.290;2023-11-22T14:27:27;99899.77;;;-1.03;88.61
34235;BME280;20500;49.856;20.290;2023-11-22T14:30:34;99920.08;;;-1.00;88.68
34235;BME280;20500;49.856;20.290;2023-11-22T14:33:41;99930.04;;;-0.96;88.71
34235;BME280;20500;49.856;20.290;2023-11-22T14:36:47;99939.68;;;-0.96;88.58
34235;BME280;20500;49.856;20.290;2023-11-22T14:39:53;99945.98;;;-1.01;88.55
34235;BME280;20500;49.856;20.290;2023-11-22T14:42:59;99945.48;;;-1.02;88.62
34235;BME280;20500;49.856;20.290;2023-11-22T14:46:07;99952.75;;;-1.01;88.63
34235;BME280;20500;49.856;20.290;2023-11-22T14:49:13;99963.91;;;-1.03;88.59
34235;BME280;20500;49.856;20.290;2023-11-22T14:52:19;99964.01;;;-1.05;88.55
34235;BME280;20500;49.856;20.290;2023-11-22T14:55:25;99956.66;;;-1.07;88.47
34235;BME280;20500;49.856;20.290;2023-11-22T14:58:31;99944.71;;;-1.10;88.35
34235;BME280;20500;49.856;20.290;2023-11-22T15:01:39;99934.80;;;-1.11;88.40
34235;BME280;20500;49.856;20.290;2023-11-22T15:04:46;99932.36;;;-1.09;88.59
34235;BME280;20500;49.856;20.290;2023-11-22T15:07:52;99934.09;;;-1.05;88.58
34235;BME280;20500;49.856;20.290;2023-11-22T15:11:00;99938.36;;;-1.08;88.34
34235;BME280;20500;49.856;20.290;2023-11-22T15:14:05;99935.80;;;-1.10;88.39
34235;BME280;20500;49.856;20.290;2023-11-22T15:17:14;99940.96;;;-1.12;88.29
34235;BME280;20500;49.856;20.290;2023-11-22T15:20:20;99957.65;;;-1.18;88.36
34235;BME280;20500;49.856;20.290;2023-11-22T15:23:24;99959.73;;;-1.17;88.36
34235;BME280;20500;49.856;20.290;2023-11-22T15:26:30;99952.48;;;-1.15;88.46
34235;BME280;20500;49.856;20.290;2023-11-22T15:29:37;99946.90;;;-1.14;88.30
34235;BME280;20500;49.856;20.290;2023-11-22T15:32:43;99942.25;;;-1.17;88.15
34235;BME280;20500;49.856;20.290;2023-11-22T15:35:49;99940.04;;;-1.22;88.17
34235;BME280;20500;49.856;20.290;2023-11-22T15:38:55;99944.98;;;-1.24;88.14
34235;BME280;20500;49.856;20.290;2023-11-22T15:42:01;99947.24;;;-1.23;88.16
34235;BME280;20500;49.856;20.290;2023-11-22T15:45:09;99944.75;;;-1.20;88.19
34235;BME280;20500;49.856;20.290;2023-11-22T15:48:15;99942.65;;;-1.17;88.20
34235;BME280;20500;49.856;20.290;2023-11-22T15:51:21;99942.80;;;-1.17;88.27
34235;BME280;20500;49.856;20.290;2023-11-22T15:54:27;99935.30;;;-1.13;88.30
34235;BME280;20500;49.856;20.290;2023-11-22T15:57:33;99929.73;;;-1.10;88.29
34235;BME280;20500;49.856;20.290;2023-11-22T16:00:38;99934.56;;;-1.07;88.31
34235;BME280;20500;49.856;20.290;2023-11-22T16:03:44;99943.29;;;-1.04;88.30
34235;BME280;20500;49.856;20.290;2023-11-22T16:06:50;99945.56;;;-1.03;88.29
34235;BME280;20500;49.856;20.290;2023-11-22T16:09:56;99946.48;;;-1.07;88.03
34235;BME280;20500;49.856;20.290;2023-11-22T16:13:01;99945.60;;;-1.10;88.03
34235;BME280;20500;49.856;20.290;2023-11-22T16:16:08;99949.34;;;-1.13;87.98